Terminal Aerodrome Forecast
Issued by NWS Albany, NY

Home | Current Version | Previous Version | Text Only | Print | Product List | Glossary On
Versions: 1 2 3 4 5 6 7 8 9 10 11 12 13 14 15 16 17 18
000
FTUS41 KALY 211300 AAA
TAFPOU
TAF AMD
KPOU 211338Z 2114/2212 00000KT 4SM BR OVC007
     FM211500 20005KT P6SM SCT010 SCT250
      TEMPO 2115/2117 5SM HZ BKN010
     FM212300 22005KT P6SM VCSH BKN040
     FM220200 26003KT P6SM SCT080
     FM220900 00000KT P6SM FEW080=

USA.gov is the U.S. government's official web portal to all federal, state and local government web resources and services.